Time;durP1;ratioP1;P1;durP2;ratioP2;P2;SDS_P1;SDS_P2;PMS_P1;PMS_P2;Temp;Humidity;BMP_temperature;BMP_pressure;BME280_temperature;BME280_humidity;BME280_pressure;Samples;Min_cycle;Max_cycle;Signal;HPM_P1;HPM_P2
2023/08/15 00:01:49;;;;;;;9.80;8.37;;;;;;;22.00;100.00;97325.63;5071549;28;20453;-72
2023/08/15 00:04:15;;;;;;;10.70;8.82;;;;;;;21.97;100.00;97320.88;5071564;28;20510;-72
2023/08/15 00:06:41;;;;;;;10.80;8.90;;;;;;;21.94;100.00;97324.22;5071654;28;20422;-72
2023/08/15 00:09:07;;;;;;;8.68;7.68;;;;;;;21.92;100.00;97318.34;5071435;28;20439;-72
2023/08/15 00:11:35;;;;;;;9.23;8.23;;;;;;;21.91;100.00;97311.38;5053539;28;20420;-72
2023/08/15 00:14:01;;;;;;;9.93;8.20;;;;;;;21.92;100.00;97312.94;5071423;28;20908;-72
2023/08/15 00:16:27;;;;;;;10.57;7.90;;;;;;;21.93;100.00;97319.13;5071476;28;20404;-72
2023/08/15 00:18:53;;;;;;;10.73;8.00;;;;;;;21.90;100.00;97314.38;5071126;28;20411;-72
2023/08/15 00:21:20;;;;;;;9.52;7.80;;;;;;;21.90;100.00;97309.00;5071302;28;20404;-72
2023/08/15 00:23:46;;;;;;;9.07;7.82;;;;;;;21.89;100.00;97316.28;5071307;28;20885;-72
2023/08/15 00:26:12;;;;;;;8.68;7.38;;;;;;;21.91;100.00;97313.28;5071283;28;20395;-72
2023/08/15 00:28:39;;;;;;;8.25;6.88;;;;;;;21.91;100.00;97311.38;5070951;28;20403;-72
2023/08/15 00:31:06;;;;;;;7.65;6.60;;;;;;;21.91;100.00;97307.88;5071026;28;20416;-72
2023/08/15 00:33:32;;;;;;;7.20;6.50;;;;;;;21.91;100.00;97308.69;5071078;28;20491;-72
2023/08/15 00:35:58;;;;;;;7.07;6.20;;;;;;;21.91;100.00;97305.19;5071032;28;20427;-72
2023/08/15 00:38:24;;;;;;;7.13;6.03;;;;;;;21.90;100.00;97301.69;5070917;28;20447;-72
2023/08/15 00:40:51;;;;;;;7.68;6.53;;;;;;;21.87;100.00;97305.06;5071015;28;20412;-72
2023/08/15 00:43:18;;;;;;;7.47;6.30;;;;;;;21.86;100.00;97297.28;5071044;28;20808;-72
2023/08/15 00:45:46;;;;;;;7.65;6.30;;;;;;;21.84;100.00;97294.13;5070918;28;20453;-72
2023/08/15 00:48:13;;;;;;;7.65;6.50;;;;;;;21.82;100.00;97291.75;5070854;28;20431;-72
2023/08/15 00:50:42;;;;;;;9.17;7.37;;;;;;;21.81;100.00;97297.47;5070454;28;20407;-72
2023/08/15 00:53:10;;;;;;;7.78;6.85;;;;;;;21.77;100.00;97293.84;5070672;28;20410;-72
2023/08/15 00:55:37;;;;;;;9.40;7.65;;;;;;;21.71;100.00;97290.56;5070570;28;20486;-72
2023/08/15 00:58:04;;;;;;;8.05;7.13;;;;;;;21.69;100.00;97298.19;5070799;28;20820;-72
2023/08/15 01:00:30;;;;;;;9.15;7.15;;;;;;;21.68;100.00;97295.78;5070586;28;20407;-72
2023/08/15 01:02:58;;;;;;;8.35;6.95;;;;;;;21.63;100.00;97300.28;5070560;28;20407;-72
2023/08/15 01:05:26;;;;;;;9.15;7.05;;;;;;;21.61;100.00;97296.31;5070463;28;20411;-72
2023/08/15 01:07:52;;;;;;;7.00;6.30;;;;;;;21.58;100.00;97288.88;5070450;28;20513;-72
2023/08/15 01:10:19;;;;;;;7.00;6.30;;;;;;;21.54;100.00;97286.03;5070438;28;20396;-72
2023/08/15 01:12:52;;;;;;;9.07;6.82;;;;;;;21.53;100.00;97283.66;5070371;28;20917;-72
2023/08/15 01:15:25;;;;;;;9.43;7.82;;;;;;;21.47;100.00;97288.47;5069926;28;20879;-72
2023/08/15 01:18:01;;;;;;;8.73;7.53;;;;;;;21.45;100.00;97284.50;5070391;28;20403;-72
2023/08/15 01:20:32;;;;;;;10.20;8.17;;;;;;;21.40;100.00;97285.47;5052288;28;20905;-72
2023/08/15 01:23:01;;;;;;;9.13;7.80;;;;;;;21.35;100.00;97290.25;5070169;28;20967;-73
2023/08/15 01:25:32;;;;;;;9.15;8.18;;;;;;;21.32;100.00;97289.00;5070379;28;20518;-72
2023/08/15 01:27:58;;;;;;;8.85;7.55;;;;;;;21.32;100.00;97282.81;5070267;28;20410;-72
2023/08/15 01:30:25;;;;;;;9.70;7.87;;;;;;;21.29;100.00;97288.84;5070114;28;20873;-72
2023/08/15 01:33:01;;;;;;;8.48;7.57;;;;;;;21.26;100.00;97284.09;5070020;28;20411;-72
2023/08/15 01:35:33;;;;;;;7.70;6.50;;;;;;;21.23;100.00;97285.53;5070085;28;20400;-72
2023/08/15 01:38:02;;;;;;;7.95;6.97;;;;;;;21.21;100.00;97277.78;5070212;28;20395;-72
2023/08/15 01:40:33;;;;;;;9.73;7.75;;;;;;;21.21;100.00;97275.06;5070063;28;20456;-73
2023/08/15 01:43:01;;;;;;;9.13;7.15;;;;;;;21.20;100.00;97276.19;5070014;28;20453;-72
2023/08/15 01:45:29;;;;;;;10.60;7.65;;;;;;;21.17;100.00;97274.16;5052201;28;20403;-73
2023/08/15 01:47:55;;;;;;;7.93;7.13;;;;;;;21.13;100.00;97275.06;5070048;28;20816;-72
2023/08/15 01:50:21;;;;;;;9.30;7.45;;;;;;;21.10;100.00;97273.84;5069922;28;20453;-72
2023/08/15 01:52:48;;;;;;;9.70;7.55;;;;;;;21.09;100.00;97282.22;5069957;28;20897;-73
2023/08/15 01:55:15;;;;;;;9.20;7.43;;;;;;;21.08;100.00;97280.63;5070007;28;20404;-73
2023/08/15 01:57:42;;;;;;;8.98;7.50;;;;;;;21.07;100.00;97279.06;5069861;28;20461;-73
2023/08/15 02:00:11;;;;;;;7.75;6.95;;;;;;;21.05;100.00;97284.75;5068730;28;22248;-73
2023/08/15 02:02:37;;;;;;;7.30;6.50;;;;;;;21.04;100.00;97277.81;5069859;28;20412;-73
2023/08/15 02:05:04;;;;;;;7.55;6.10;;;;;;;21.02;100.00;97279.25;5069988;28;20427;-72
2023/08/15 02:07:30;;;;;;;8.95;6.63;;;;;;;21.00;100.00;97278.75;5069878;28;20494;-73
2023/08/15 02:09:56;;;;;;;7.05;6.28;;;;;;;21.00;100.00;97270.69;5069721;28;20896;-72
2023/08/15 02:12:22;;;;;;;7.65;6.13;;;;;;;20.99;100.00;97277.19;5069714;28;20411;-72
2023/08/15 02:14:50;;;;;;;7.20;6.43;;;;;;;20.98;100.00;97273.69;5069833;28;20809;-73
2023/08/15 02:17:16;;;;;;;6.43;5.70;;;;;;;20.98;100.00;97273.69;5069970;28;20604;-73
2023/08/15 02:19:42;;;;;;;6.50;5.80;;;;;;;20.98;100.00;97278.28;5069673;28;20404;-72
2023/08/15 02:22:08;;;;;;;7.60;6.33;;;;;;;20.98;100.00;97278.28;5069825;28;20399;-72
2023/08/15 02:24:34;;;;;;;8.07;7.15;;;;;;;21.00;100.00;97268.00;5069769;28;20426;-72
2023/08/15 02:27:01;;;;;;;8.95;7.65;;;;;;;21.08;100.00;97269.88;5052641;28;20800;-72
2023/08/15 02:29:27;;;;;;;9.68;8.48;;;;;;;21.12;100.00;97271.63;5073317;28;20403;-72
2023/08/15 02:31:55;;;;;;;9.20;8.00;;;;;;;21.15;100.00;97264.78;5073206;28;20419;-73
2023/08/15 02:34:21;;;;;;;9.10;7.30;;;;;;;21.16;100.00;97258.28;5073308;28;20403;-72
2023/08/15 02:36:47;;;;;;;8.13;6.93;;;;;;;21.16;100.00;97261.81;5073406;28;20580;-72
2023/08/15 02:39:13;;;;;;;7.40;6.57;;;;;;;21.15;100.00;97267.47;5073199;28;20435;-72
2023/08/15 02:41:40;;;;;;;9.25;6.30;;;;;;;21.13;100.00;97262.41;5073308;28;20400;-72
2023/08/15 02:44:06;;;;;;;7.17;6.30;;;;;;;21.10;100.00;97262.28;5073291;28;20487;-72
2023/08/15 02:46:33;;;;;;;7.22;6.35;;;;;;;21.08;100.00;97267.97;5073243;28;20882;-72
2023/08/15 02:49:00;;;;;;;7.47;6.35;;;;;;;21.06;100.00;97255.94;5072945;28;20403;-72
2023/08/15 02:51:26;;;;;;;7.70;6.22;;;;;;;21.06;100.00;97251.34;5073011;28;20448;-72
2023/08/15 02:53:52;;;;;;;6.78;5.93;;;;;;;21.07;100.00;97258.31;5073003;28;20404;-72
2023/08/15 02:56:19;;;;;;;6.38;5.78;;;;;;;21.06;100.00;97266.72;5072928;28;20416;-72
2023/08/15 02:58:45;;;;;;;6.00;5.40;;;;;;;21.05;100.00;97267.84;5072789;28;20427;-72
2023/08/15 03:01:11;;;;;;;6.28;5.60;;;;;;;21.02;100.00;97261.19;5072882;28;20483;-72
2023/08/15 03:03:37;;;;;;;6.30;5.70;;;;;;;21.00;100.00;97254.53;5072911;28;20893;-72
2023/08/15 03:06:05;;;;;;;9.60;5.80;;;;;;;21.01;100.00;97266.88;5072823;28;20407;-72
2023/08/15 03:08:31;;;;;;;7.35;6.60;;;;;;;20.99;100.00;97274.47;5072734;28;20869;-72
2023/08/15 03:10:58;;;;;;;8.48;6.80;;;;;;;20.96;100.00;97267.88;5072580;28;20924;-72
2023/08/15 03:13:25;;;;;;;7.93;7.10;;;;;;;20.93;100.00;97267.69;5072683;28;20812;-72
2023/08/15 03:15:52;;;;;;;8.25;7.07;;;;;;;20.91;100.00;97273.41;5072553;28;20409;-72
2023/08/15 03:18:18;;;;;;;7.85;7.05;;;;;;;20.90;100.00;97273.75;5072658;28;20400;-72
2023/08/15 03:20:53;;;;;;;7.93;7.13;;;;;;;20.90;100.00;97273.75;5072231;28;20804;-72
2023/08/15 03:23:21;;;;;;;7.78;6.95;;;;;;;20.89;100.00;97269.47;5072495;28;20437;-72
2023/08/15 03:25:54;;;;;;;9.07;7.22;;;;;;;20.86;100.00;97274.38;5072538;28;20400;-72
2023/08/15 03:28:20;;;;;;;10.73;7.82;;;;;;;20.84;100.00;97271.19;5072330;28;20522;-72
2023/08/15 03:30:47;;;;;;;8.63;7.72;;;;;;;20.83;100.00;97272.31;5072114;28;20396;-72
2023/08/15 03:33:14;;;;;;;8.75;7.28;;;;;;;20.82;100.00;97273.41;5072334;28;20408;-72
2023/08/15 03:35:45;;;;;;;8.30;7.22;;;;;;;20.81;100.00;97277.22;5072211;28;20403;-72
2023/08/15 03:38:12;;;;;;;8.30;7.10;;;;;;;20.79;100.00;97284.03;5071846;28;20426;-72
2023/08/15 03:40:40;;;;;;;8.75;7.30;;;;;;;20.76;100.00;97282.75;5072074;28;20430;-72
2023/08/15 03:43:06;;;;;;;8.07;7.23;;;;;;;20.76;100.00;97284.66;5072085;28;20407;-72
2023/08/15 03:45:32;;;;;;;8.75;7.00;;;;;;;20.74;100.00;97286.91;5072083;28;20470;-72
2023/08/15 03:47:58;;;;;;;8.02;6.50;;;;;;;20.71;100.00;97279.44;5071998;28;20414;-72
2023/08/15 03:50:24;;;;;;;7.07;6.38;;;;;;;20.69;100.00;97287.84;5071919;28;20460;-72
2023/08/15 03:52:50;;;;;;;7.82;6.38;;;;;;;20.68;100.00;97285.47;5071844;28;20447;-72
2023/08/15 03:55:17;;;;;;;9.57;7.05;;;;;;;20.66;100.00;97296.56;5071878;28;20884;-72
2023/08/15 03:57:44;;;;;;;8.55;7.50;;;;;;;20.65;100.00;97294.19;5071822;28;20404;-72
2023/08/15 04:00:13;;;;;;;9.80;7.72;;;;;;;20.61;100.00;97309.34;5071655;28;20745;-72
2023/08/15 04:02:39;;;;;;;8.32;6.97;;;;;;;20.56;100.00;97296.88;5071600;28;20401;-72
2023/08/15 04:05:05;;;;;;;11.23;7.25;;;;;;;20.56;100.00;97301.47;5071814;28;20396;-72
2023/08/15 04:07:32;;;;;;;8.20;7.28;;;;;;;20.54;100.00;97301.78;5053642;28;20910;-72
2023/08/15 04:09:58;;;;;;;8.10;7.03;;;;;;;20.52;100.00;97304.00;5071462;28;20412;-72
2023/08/15 04:12:24;;;;;;;8.45;7.38;;;;;;;20.50;100.00;97311.59;5071347;28;20502;-72
2023/08/15 04:14:51;;;;;;;7.87;6.93;;;;;;;20.50;100.00;97316.19;5071398;28;20407;-72
2023/08/15 04:17:18;;;;;;;10.38;7.82;;;;;;;20.47;100.00;97312.22;5071649;28;20800;-72
2023/08/15 04:19:44;;;;;;;8.70;7.80;;;;;;;20.49;100.00;97318.06;5071223;28;20438;-72
2023/08/15 04:22:10;;;;;;;10.40;7.68;;;;;;;20.47;100.00;97313.00;5071249;28;20407;-72
2023/08/15 04:24:36;;;;;;;8.13;6.85;;;;;;;20.46;100.00;97313.31;5071250;28;20404;-72
2023/08/15 04:27:02;;;;;;;10.15;7.55;;;;;;;20.45;100.00;97325.19;5071256;28;20873;-72
2023/08/15 04:29:28;;;;;;;8.35;7.43;;;;;;;20.43;100.00;97322.81;5071159;28;20769;-72
2023/08/15 04:31:56;;;;;;;9.37;8.37;;;;;;;20.42;100.00;97336.56;5070936;28;20473;-72
2023/08/15 04:34:22;;;;;;;11.82;8.57;;;;;;;20.42;100.00;97347.34;5071127;28;20399;-72
2023/08/15 04:36:48;;;;;;;9.47;8.47;;;;;;;20.44;100.00;97348.63;5071035;28;20890;-72
2023/08/15 04:39:18;;;;;;;10.13;8.05;;;;;;;20.46;100.00;97351.75;5070728;28;20396;-72
2023/08/15 04:41:44;;;;;;;8.37;7.57;;;;;;;20.51;100.00;97353.50;5080305;28;20507;-72
2023/08/15 04:44:11;;;;;;;8.27;7.43;;;;;;;20.56;100.00;97358.72;5091175;28;20394;-72
2023/08/15 04:46:37;;;;;;;9.45;7.75;;;;;;;20.61;100.00;97360.47;5091087;28;20402;-72
2023/08/15 04:49:05;;;;;;;10.63;8.05;;;;;;;20.63;100.00;97361.72;5090596;28;20420;-72
2023/08/15 04:51:31;;;;;;;9.77;8.35;;;;;;;20.65;100.00;97366.81;5090479;28;20508;-72
2023/08/15 04:53:57;;;;;;;10.37;8.57;;;;;;;20.66;100.00;97366.50;5090729;28;20490;-72
2023/08/15 04:56:24;;;;;;;10.35;8.65;;;;;;;20.69;100.00;97362.34;5090844;28;20776;-72
2023/08/15 04:58:50;;;;;;;10.43;9.00;;;;;;;20.71;100.00;97362.84;5090748;28;20409;-72
2023/08/15 05:01:16;;;;;;;9.90;8.60;;;;;;;20.73;100.00;97363.31;5090782;28;20757;-72
2023/08/15 05:03:42;;;;;;;9.13;7.85;;;;;;;20.76;100.00;97366.16;5090812;28;20459;-72
2023/08/15 05:06:10;;;;;;;9.57;7.93;;;;;;;20.83;100.00;97363.00;5072736;28;20403;-72
2023/08/15 05:08:36;;;;;;;10.25;7.90;;;;;;;20.90;100.00;97362.53;5090611;28;20456;-72
2023/08/15 05:11:03;;;;;;;9.10;7.60;;;;;;;20.95;100.00;97368.53;5090529;28;20406;-72
2023/08/15 05:13:29;;;;;;;8.30;7.43;;;;;;;21.02;100.00;97371.53;5090696;28;20760;-72
2023/08/15 05:15:55;;;;;;;9.20;7.20;;;;;;;21.11;100.00;97372.31;5090599;28;21104;-72
2023/08/15 05:18:22;;;;;;;8.30;6.93;;;;;;;21.20;100.00;97367.72;5090640;28;20731;-72
2023/08/15 05:20:48;;;;;;;7.20;6.50;;;;;;;21.31;100.00;97376.25;5090599;28;20398;-72
2023/08/15 05:23:16;;;;;;;7.35;6.20;;;;;;;21.39;100.00;97375.44;5090491;28;20405;-72
2023/08/15 05:25:43;;;;;;;6.78;6.07;;;;;;;21.45;100.00;97374.16;5090508;28;20417;-72
2023/08/15 05:28:10;;;;;;;6.38;5.72;;;;;;;21.53;100.00;97372.56;5090682;28;20960;-72
2023/08/15 05:30:36;;;;;;;6.70;5.70;;;;;;;21.58;100.00;97365.09;5090336;28;20402;-72
2023/08/15 05:33:03;;;;;;;6.03;5.43;;;;;;;21.66;100.00;97373.47;5090276;28;20410;-72
2023/08/15 05:35:30;;;;;;;6.07;5.47;;;;;;;21.70;100.00;97371.72;5090462;28;20756;-72
2023/08/15 05:37:56;;;;;;;6.60;6.00;;;;;;;21.75;100.00;97366.13;5087869;28;20410;-72
2023/08/15 05:40:23;;;;;;;6.30;5.70;;;;;;;21.81;100.00;97375.63;5070066;28;20881;-72
2023/08/15 05:42:50;;;;;;;6.03;5.43;;;;;;;21.86;100.00;97368.16;5070054;28;20407;-72
2023/08/15 05:45:16;;;;;;;6.10;5.47;;;;;;;21.92;100.00;97369.56;5070192;28;20464;-72
2023/08/15 05:47:42;;;;;;;6.07;5.47;;;;;;;21.95;100.00;97370.81;5070175;28;20529;-72
2023/08/15 05:50:09;;;;;;;6.15;5.55;;;;;;;21.96;100.00;97367.81;5052096;28;20415;-72
2023/08/15 05:52:35;;;;;;;6.43;5.53;;;;;;;21.96;100.00;97381.28;5069874;28;20415;-72
2023/08/15 05:55:02;;;;;;;6.25;5.65;;;;;;;21.98;100.00;97391.75;5070025;28;20400;-72
2023/08/15 05:57:29;;;;;;;6.07;5.47;;;;;;;21.95;100.00;97390.44;5070039;28;20446;-72
2023/08/15 05:59:55;;;;;;;5.80;5.20;;;;;;;21.90;100.00;97390.63;5069831;28;20436;-72
2023/08/15 06:02:21;;;;;;;6.65;5.65;;;;;;;21.86;100.00;97405.88;5073042;28;20402;-72
2023/08/15 06:04:48;;;;;;;7.18;6.03;;;;;;;21.82;100.00;97407.63;5074001;28;20456;-72
2023/08/15 06:07:14;;;;;;;6.43;5.83;;;;;;;21.82;100.00;97418.41;5074062;28;20874;-72
2023/08/15 06:09:40;;;;;;;7.65;6.60;;;;;;;21.83;100.00;97416.50;5073826;28;20399;-72
2023/08/15 06:12:07;;;;;;;8.30;6.57;;;;;;;21.83;100.00;97414.59;5073796;28;20415;-72
2023/08/15 06:14:37;;;;;;;7.32;6.60;;;;;;;21.89;100.00;97426.00;5073952;28;20406;-72
2023/08/15 06:17:04;;;;;;;7.23;6.27;;;;;;;21.94;100.00;97421.25;5077261;28;20394;-72
2023/08/15 06:19:30;;;;;;;6.75;6.05;;;;;;;22.04;100.00;97422.00;5093915;28;20398;-72
2023/08/15 06:21:56;;;;;;;6.82;6.13;;;;;;;22.12;100.00;97426.56;5083026;28;20396;-72
2023/08/15 06:24:22;;;;;;;7.68;5.95;;;;;;;22.18;100.00;97409.88;5073681;28;20416;-72
2023/08/15 06:26:48;;;;;;;6.43;5.82;;;;;;;22.24;100.00;97421.28;5073448;28;20878;-72
2023/08/15 06:29:15;;;;;;;6.37;5.60;;;;;;;22.25;100.00;97425.56;5073384;28;20403;-72
2023/08/15 06:31:42;;;;;;;6.03;5.43;;;;;;;22.23;100.00;97435.88;5073274;28;20498;-72
2023/08/15 06:34:08;;;;;;;6.75;5.50;;;;;;;22.21;100.00;97427.31;5073492;28;20865;-72
2023/08/15 06:36:34;;;;;;;6.53;5.47;;;;;;;22.18;100.00;97439.53;5073537;28;20452;-72
2023/08/15 06:39:01;;;;;;;6.70;5.43;;;;;;;22.19;100.00;97441.13;5073151;28;20959;-72
2023/08/15 06:41:27;;;;;;;6.63;5.88;;;;;;;22.23;100.00;97446.66;5073293;28;20885;-72
2023/08/15 06:43:53;;;;;;;6.32;5.72;;;;;;;22.30;100.00;97457.75;5073206;28;20988;-72
2023/08/15 06:46:19;;;;;;;7.25;5.85;;;;;;;22.38;100.00;97443.41;5073329;28;20469;-72
2023/08/15 06:48:47;;;;;;;6.90;6.20;;;;;;;22.47;100.00;97444.16;5073188;28;20488;-72
2023/08/15 06:51:13;;;;;;;7.00;5.93;;;;;;;22.56;100.00;97450.28;5073056;28;20754;-72
2023/08/15 06:53:43;;;;;;;5.40;4.85;;;;;;;22.63;100.00;97452.47;5072977;28;20823;-72
2023/08/15 06:56:10;;;;;;;5.78;5.13;;;;;;;22.67;100.00;97453.41;5085665;28;20957;-72
2023/08/15 06:58:37;;;;;;;6.53;5.35;;;;;;;22.68;100.00;97458.47;5093115;28;20441;-72
2023/08/15 07:01:05;;;;;;;5.90;5.28;;;;;;;22.70;100.00;97464.31;5093215;28;20798;-72
2023/08/15 07:03:33;;;;;;;7.68;5.80;;;;;;;22.80;100.00;97460.47;5093151;28;20402;-72
2023/08/15 07:06:00;;;;;;;6.47;5.60;;;;;;;22.95;100.00;97461.78;5093052;28;20409;-72
2023/08/15 07:08:26;;;;;;;5.68;5.13;;;;;;;23.09;100.00;97465.03;5092919;28;20429;-72
2023/08/15 07:10:55;;;;;;;6.00;5.03;;;;;;;;;;5093047;28;20409;-72
2023/08/15 07:13:21;;;;;;;6.83;5.60;;;;;;;23.25;100.00;97468.69;5092105;28;20412;-72
2023/08/15 07:15:52;;;;;;;6.00;5.38;;;;;;;23.36;100.00;97461.00;5092874;28;20405;-72
2023/08/15 07:18:18;;;;;;;6.28;5.57;;;;;;;23.49;100.00;97474.25;5092912;28;20433;-72
2023/08/15 07:20:45;;;;;;;6.10;5.10;;;;;;;23.70;100.00;97471.47;5074699;28;20400;-72
2023/08/15 07:23:12;;;;;;;4.95;4.45;;;;;;;23.93;100.00;97474.59;5072587;28;20458;-72
2023/08/15 07:25:42;;;;;;;7.55;5.13;;;;;;;24.07;100.00;97477.75;5072465;28;20415;-72
2023/08/15 07:28:09;;;;;;;5.20;4.70;;;;;;;24.22;100.00;97476.34;5085109;28;20879;-72
2023/08/15 07:30:35;;;;;;;9.82;6.57;;;;;;;24.29;100.00;97481.97;5092697;28;20911;-72
2023/08/15 07:33:01;;;;;;;6.70;5.82;;;;;;;24.36;100.00;97486.84;5092469;28;20417;-72
2023/08/15 07:35:27;;;;;;;8.98;6.25;;;;;;;24.33;100.00;97480.19;5077411;28;20750;-72
2023/08/15 07:37:54;;;;;;;6.97;5.40;;;;;;;24.32;100.00;97475.09;5072299;28;20400;-72
2023/08/15 07:40:22;;;;;;;5.95;5.35;;;;;;;24.36;100.00;97476.78;5072145;28;20406;-72
2023/08/15 07:42:49;;;;;;;5.40;4.80;;;;;;;24.47;100.00;97474.44;5071931;28;20407;-72
2023/08/15 07:45:16;;;;;;;5.88;4.57;;;;;;;24.64;100.00;97468.78;5072093;28;20392;-72
2023/08/15 07:47:42;;;;;;;5.63;4.70;;;;;;;24.83;100.00;97470.88;5072615;28;20428;-72
2023/08/15 07:50:15;;;;;;;6.22;4.78;;;;;;;24.95;100.00;97474.41;5092148;28;20911;-73
2023/08/15 07:52:42;;;;;;;7.97;6.27;;;;;;;24.94;100.00;97472.84;5092034;28;20414;-73
2023/08/15 07:55:09;;;;;;;8.43;6.10;;;;;;;24.90;100.00;97460.28;5092073;28;20410;-72
2023/08/15 07:57:37;;;;;;;5.82;5.32;;;;;;;24.84;100.00;97454.31;5091960;28;20402;-73
2023/08/15 08:00:04;;;;;;;6.17;5.57;;;;;;;24.79;100.00;97461.88;5091889;28;20751;-73
2023/08/15 08:02:33;;;;;;;6.22;5.22;;;;;;;24.78;100.00;97468.44;5091882;28;20801;-72
2023/08/15 08:04:59;;;;;;;6.70;5.10;;;;;;;24.82;100.00;97461.19;5091975;28;20816;-72
2023/08/15 08:07:25;;;;;;;5.10;4.30;;;;;;;24.96;100.00;97470.56;5091963;28;20402;-72
2023/08/15 08:09:51;;;;;;;5.00;4.40;;;;;;;25.15;100.00;97469.16;5091609;28;20483;-72
2023/08/15 08:12:18;;;;;;;5.10;4.07;;;;;;;25.36;100.00;97475.97;5091702;28;20410;-72
2023/08/15 08:14:45;;;;;;;8.82;5.10;;;;;;;25.59;100.00;97473.53;5091685;28;20875;-72
2023/08/15 08:17:11;;;;;;;6.72;5.20;;;;;;;25.71;100.00;97467.28;5091707;28;20409;-72
2023/08/15 08:19:38;;;;;;;5.32;4.70;;;;;;;25.69;100.00;97469.53;5091562;28;20569;-72
2023/08/15 08:22:04;;;;;;;4.67;4.23;;;;;;;25.67;100.00;97466.38;5091466;28;20405;-73
2023/08/15 08:24:30;;;;;;;6.37;4.30;;;;;;;25.65;100.00;97457.78;5091586;28;20398;-73
2023/08/15 08:26:57;;;;;;;8.60;4.53;;;;;;;25.66;100.00;97462.06;5091355;28;20405;-72
2023/08/15 08:29:23;;;;;;;6.13;4.07;;;;;;;25.67;100.00;97461.75;5091367;28;20459;-72
2023/08/15 08:31:51;;;;;;;5.43;3.80;;;;;;;25.64;100.00;97462.41;5091142;28;20418;-73
2023/08/15 08:34:17;;;;;;;4.15;3.75;;;;;;;25.60;100.00;97466.19;5091421;28;20432;-73
2023/08/15 08:36:43;;;;;;;4.63;4.13;;;;;;;25.59;100.00;97464.59;5090954;28;20842;-72
2023/08/15 08:39:11;;;;;;;4.88;4.38;;;;;;;25.74;100.00;97469.25;5090940;28;20489;-72
2023/08/15 08:41:38;;;;;;;5.90;4.20;;;;;;;25.91;100.00;97481.72;5090811;28;20393;-72
2023/08/15 08:44:05;;;;;;;4.80;4.28;;;;;;;26.05;100.00;97479.38;5091088;28;20398;-72
2023/08/15 08:46:33;;;;;;;4.90;3.63;;;;;;;26.24;100.00;97463.16;5090800;28;20474;-72
2023/08/15 08:49:03;;;;;;;5.18;4.43;;;;;;;26.28;100.00;97472.22;5090687;28;20398;-72
2023/08/15 08:51:31;;;;;;;6.50;4.40;;;;;;;26.24;100.00;97481.41;5072407;28;20421;-72
2023/08/15 08:53:58;;;;;;;4.70;4.00;;;;;;;26.15;100.00;97489.72;5090580;28;20464;-73
2023/08/15 08:56:26;;;;;;;7.43;4.90;;;;;;;25.97;100.00;97483.81;5090585;28;20418;-73
2023/08/15 08:58:59;;;;;;;4.97;4.43;;;;;;;25.86;100.00;97490.13;5090485;28;20760;-73
2023/08/15 09:01:27;;;;;;;6.70;5.25;;;;;;;25.73;100.00;97482.03;5090779;28;20477;-73
2023/08/15 09:03:53;;;;;;;14.23;6.65;;;;;;;25.43;100.00;97481.59;5090435;28;20402;-73
2023/08/15 09:06:21;;;;;;;9.48;6.63;;;;;;;25.46;100.00;97488.25;5090512;28;20879;-73
2023/08/15 09:08:47;;;;;;;8.50;6.65;;;;;;;25.57;100.00;97497.44;5090439;28;20398;-72
2023/08/15 09:11:14;;;;;;;8.15;6.60;;;;;;;25.64;100.00;97491.44;5090326;28;20406;-72
2023/08/15 09:13:46;;;;;;;8.18;5.88;;;;;;;25.77;100.00;97498.41;5090389;28;20755;-72
2023/08/15 09:16:12;;;;;;;6.72;5.53;;;;;;;25.91;100.00;97498.78;5085738;28;20414;-72
2023/08/15 09:18:39;;;;;;;6.90;5.67;;;;;;;25.95;100.00;97494.22;5069936;28;20400;-72
2023/08/15 09:21:05;;;;;;;10.40;6.07;;;;;;;25.66;100.00;97473.72;5070148;28;20408;-73
2023/08/15 09:23:33;;;;;;;10.23;6.25;;;;;;;25.91;100.00;97474.38;5070482;28;20594;-72
2023/08/15 09:26:12;;;;;;;6.45;4.75;;;;;;;26.26;100.00;97484.56;5070278;28;20442;-73
2023/08/15 09:28:39;;;;;;;8.10;4.50;;;;;;;26.44;100.00;97477.66;5070344;28;20924;-73
2023/08/15 09:31:06;;;;;;;6.47;4.38;;;;;;;26.49;100.00;97463.78;5052197;28;20901;-73
2023/08/15 09:33:34;;;;;;;8.37;4.30;;;;;;;26.48;100.00;97459.50;5070124;28;20506;-73
2023/08/15 09:36:03;;;;;;;5.53;3.90;;;;;;;26.39;100.00;97456.97;5069819;28;20396;-73
2023/08/15 09:38:29;;;;;;;4.57;3.83;;;;;;;26.27;100.00;97465.22;5070139;28;20451;-73
2023/08/15 09:40:57;;;;;;;6.97;4.10;;;;;;;26.13;100.00;97449.34;5070162;28;20888;-72
2023/08/15 09:43:24;;;;;;;10.60;3.70;;;;;;;25.91;100.00;97446.47;5070277;28;20423;-73
2023/08/15 09:45:50;;;;;;;10.53;4.47;;;;;;;25.85;100.00;97447.84;5070214;28;20434;-73
2023/08/15 09:48:18;;;;;;;4.75;3.38;;;;;;;25.80;100.00;97446.97;5070216;28;20396;-73
2023/08/15 09:50:47;;;;;;;5.50;3.70;;;;;;;25.86;100.00;97452.94;5069838;28;20475;-72
2023/08/15 09:53:14;;;;;;;5.88;3.60;;;;;;;25.89;100.00;97443.31;5070024;28;20415;-73
2023/08/15 09:55:41;;;;;;;6.35;3.35;;;;;;;25.91;100.00;97432.91;5069858;28;20407;-71
2023/08/15 09:58:09;;;;;;;7.35;3.33;;;;;;;26.01;100.00;97424.25;5070261;28;20487;-73
2023/08/15 10:00:36;;;;;;;4.60;3.00;;;;;;;26.11;100.00;97427.19;5069955;28;20415;-72
2023/08/15 10:03:14;;;;;;;6.07;3.28;;;;;;;26.24;100.00;97419.75;5069946;28;20478;-73
2023/08/15 10:05:45;;;;;;;4.85;3.28;;;;;;;26.25;100.00;97431.38;5070038;28;20828;-72
2023/08/15 10:08:12;;;;;;;4.55;3.30;;;;;;;26.25;100.00;97442.25;5070056;28;20885;-73
2023/08/15 10:10:39;;;;;;;6.25;3.33;;;;;;;26.23;100.00;97442.63;5069807;28;20406;-73
2023/08/15 10:13:09;;;;;;;4.53;3.17;;;;;;;26.18;100.00;97446.38;5069783;28;20415;-73
2023/08/15 10:15:36;;;;;;;6.03;3.00;;;;;;;26.10;100.00;97435.69;5069879;28;20893;-73
2023/08/15 10:18:03;;;;;;;7.70;3.45;;;;;;;25.99;100.00;97451.72;5069827;28;20532;-73
2023/08/15 10:20:38;;;;;;;5.80;3.70;;;;;;;26.01;100.00;97443.25;5069688;28;20803;-73
2023/08/15 10:23:09;;;;;;;5.13;3.22;;;;;;;25.93;100.00;97452.34;5069753;28;20445;-73
2023/08/15 10:25:36;;;;;;;4.50;2.85;;;;;;;25.90;100.00;97451.09;5069947;28;20430;-73
2023/08/15 10:28:09;;;;;;;6.82;3.25;;;;;;;25.74;100.00;97453.78;5069745;28;20435;-72
2023/08/15 10:30:41;;;;;;;4.82;2.80;;;;;;;25.73;100.00;97463.06;5069589;28;20399;-73
2023/08/15 10:33:15;;;;;;;4.50;2.78;;;;;;;25.74;100.00;97459.22;5069588;28;20407;-72
2023/08/15 10:36:05;;;;;;;3.15;2.30;;;;;;;25.81;100.00;97472.16;5069620;28;20407;-72
2023/08/15 10:38:35;;;;;;;5.85;3.22;;;;;;;25.79;100.00;97463.56;5069618;28;20398;-72
2023/08/15 10:41:02;;;;;;;5.88;2.83;;;;;;;25.88;100.00;97458.00;5069559;28;20406;-72
2023/08/15 10:43:32;;;;;;;5.33;3.13;;;;;;;26.01;100.00;97464.94;5069521;28;20781;-72
2023/08/15 10:46:04;;;;;;;3.60;2.60;;;;;;;26.08;100.00;97452.34;5072484;28;20455;-72
2023/08/15 10:48:43;;;;;;;5.13;2.83;;;;;;;26.20;100.00;97471.22;5091323;28;20478;-72
2023/08/15 10:51:19;;;;;;;5.07;2.50;;;;;;;26.32;100.00;97462.22;5093297;28;20539;-72
2023/08/15 10:53:47;;;;;;;5.28;2.50;;;;;;;26.43;100.00;97455.13;5093032;28;20809;-72
2023/08/15 10:56:16;;;;;;;3.33;2.30;;;;;;;26.55;100.00;97459.66;5093310;28;20475;-72
2023/08/15 10:58:44;;;;;;;4.80;2.30;;;;;;;26.54;100.00;97455.38;5092921;28;20397;-73
2023/08/15 11:01:11;;;;;;;4.88;2.45;;;;;;;26.61;100.00;97477.28;5093120;28;20402;-72
2023/08/15 11:03:37;;;;;;;4.05;2.58;;;;;;;26.67;100.00;97473.16;5093292;28;20433;-72
2023/08/15 11:06:08;;;;;;;5.65;2.55;;;;;;;26.67;100.00;97473.16;5089582;28;20392;-72
2023/08/15 11:08:39;;;;;;;4.47;2.33;;;;;;;26.62;100.00;97484.25;5072718;28;20391;-72
2023/08/15 11:11:05;;;;;;;5.10;2.40;;;;;;;26.57;100.00;97473.69;5072648;28;20418;-72
2023/08/15 11:13:37;;;;;;;5.65;3.10;;;;;;;26.50;100.00;97468.88;5072623;28;20469;-71
2023/08/15 11:16:06;;;;;;;2.67;2.00;;;;;;;26.46;100.00;97473.41;5072696;28;20894;-72
2023/08/15 11:18:33;;;;;;;3.13;2.22;;;;;;;26.46;100.00;97473.41;5072421;28;20400;-72
2023/08/15 11:21:01;;;;;;;5.17;2.60;;;;;;;26.55;100.00;97473.25;5072660;28;20419;-72
2023/08/15 11:23:28;;;;;;;3.83;2.30;;;;;;;26.62;100.00;97470.69;5072601;28;20438;-72
2023/08/15 11:25:59;;;;;;;3.88;2.38;;;;;;;26.82;100.00;97464.19;5072507;28;20761;-72